SKU011 SEGS-SLVR
Flight info
| Callsign | SKU011 |
|---|---|
| Flight time | 4h 20m |
| Altitude | 37000 |
| Route | SCV2B SCV DCT OSAKI UL312 ISREN UL308 ATATU DCT ILROL DCT URC UM668 OPTOP DCT NEGAX DCT VIR |
| Aircraft | A20N/M-SDE2E3FGHIRWXY/LB1 |
Departure
| Time | 2026-04-26 19:34 |
|---|---|
| Airport | Seymour Galapagos Ecological Airport (SEGS) |
Arrival
| Time | 2026-04-26 23:54 |
|---|---|
| Airport | Viru Viru International Airport (SLVR) |
| Time | Latitude | Longitude | Altitude | Speed | Heading |
|---|---|---|---|---|---|
| 2026-04-26 19:22 | -0.44572 | -90.27045 | 161 ft | 0 kts | 144° |
| 2026-04-26 19:29 | -0.44590 | -90.27032 | 161 ft | 8 kts | 144° |
| 2026-04-26 19:29 | -0.44623 | -90.27026 | 164 ft | 4 kts | 194° |
| 2026-04-26 19:29 | -0.44636 | -90.27036 | 162 ft | 1 kts | 224° |
| 2026-04-26 19:30 | -0.44638 | -90.27038 | 162 ft | 0 kts | 229° |
| 2026-04-26 19:31 | -0.44650 | -90.27056 | 162 ft | 9 kts | 236° |
| 2026-04-26 19:32 | -0.44682 | -90.27083 | 163 ft | 4 kts | 167° |
| 2026-04-26 19:32 | -0.44695 | -90.27078 | 163 ft | 2 kts | 155° |
| 2026-04-26 19:32 | -0.44711 | -90.27069 | 164 ft | 1 kts | 142° |
| 2026-04-26 19:32 | -0.44712 | -90.27068 | 161 ft | 1 kts | 143° |
| 2026-04-26 19:33 | -0.44834 | -90.26980 | 169 ft | 55 kts | 144° |
| 2026-04-26 19:33 | -0.45320 | -90.26626 | 181 ft | 116 kts | 144° |
| 2026-04-26 19:33 | -0.46104 | -90.26057 | 218 ft | 161 kts | 142° |
| 2026-04-26 19:33 | -0.47066 | -90.25348 | 589 ft | 182 kts | 143° |
| 2026-04-26 19:34 | -0.48099 | -90.24590 | 1344 ft | 183 kts | 142° |
| 2026-04-26 19:34 | -0.49112 | -90.23832 | 2146 ft | 182 kts | 142° |
| 2026-04-26 19:34 | -0.50163 | -90.23038 | 2454 ft | 199 kts | 140° |
| 2026-04-26 19:34 | -0.51000 | -90.21877 | 2659 ft | 221 kts | 104° |
| 2026-04-26 19:35 | -0.51212 | -90.20275 | 2925 ft | 245 kts | 99° |
| 2026-04-26 19:35 | -0.51832 | -90.18645 | 3415 ft | 258 kts | 122° |
| 2026-04-26 19:35 | -0.52834 | -90.17127 | 4143 ft | 263 kts | 123° |
| 2026-04-26 19:35 | -0.53862 | -90.15608 | 4877 ft | 266 kts | 123° |
| 2026-04-26 19:36 | -0.54914 | -90.14071 | 5612 ft | 270 kts | 123° |
| 2026-04-26 19:36 | -0.55623 | -90.13039 | 6145 ft | 273 kts | 123° |
| 2026-04-26 19:36 | -0.57075 | -90.10927 | 7172 ft | 278 kts | 123° |
| 2026-04-26 19:36 | -0.58163 | -90.09341 | 7853 ft | 281 kts | 123° |
| 2026-04-26 19:37 | -0.59272 | -90.07718 | 8527 ft | 285 kts | 123° |
| 2026-04-26 19:37 | -0.60395 | -90.06073 | 9177 ft | 289 kts | 123° |
| 2026-04-26 19:37 | -0.61535 | -90.04406 | 9848 ft | 293 kts | 123° |
| 2026-04-26 19:37 | -0.62705 | -90.02697 | 10194 ft | 307 kts | 124° |
| 2026-04-26 19:38 | -0.63955 | -90.00873 | 10314 ft | 329 kts | 124° |
| 2026-04-26 19:38 | -0.65289 | -89.98926 | 10463 ft | 347 kts | 124° |
| 2026-04-26 19:38 | -0.66671 | -89.96904 | 10870 ft | 355 kts | 124° |
| 2026-04-26 19:38 | -0.68069 | -89.94860 | 11390 ft | 359 kts | 124° |
| 2026-04-26 19:39 | -0.69486 | -89.92791 | 11921 ft | 362 kts | 124° |
| 2026-04-26 19:39 | -0.70917 | -89.90701 | 12457 ft | 366 kts | 124° |
| 2026-04-26 19:39 | -0.72363 | -89.88589 | 12976 ft | 369 kts | 124° |
| 2026-04-26 19:39 | -0.73819 | -89.86462 | 13502 ft | 372 kts | 124° |
| 2026-04-26 19:40 | -0.75287 | -89.84316 | 13983 ft | 376 kts | 124° |
| 2026-04-26 19:40 | -0.76765 | -89.82154 | 14476 ft | 378 kts | 124° |
| 2026-04-26 19:40 | -0.78249 | -89.79984 | 14965 ft | 380 kts | 124° |
| 2026-04-26 19:40 | -0.79745 | -89.77802 | 15461 ft | 381 kts | 124° |
| 2026-04-26 19:41 | -0.81248 | -89.75611 | 15929 ft | 383 kts | 124° |
| 2026-04-26 19:41 | -0.82756 | -89.73404 | 16420 ft | 385 kts | 124° |
| 2026-04-26 19:41 | -0.84248 | -89.71218 | 16881 ft | 387 kts | 124° |
| 2026-04-26 19:41 | -0.85274 | -89.69715 | 17199 ft | 388 kts | 124° |
| 2026-04-26 19:42 | -0.87291 | -89.66757 | 17819 ft | 391 kts | 124° |
| 2026-04-26 19:42 | -0.88829 | -89.64504 | 18248 ft | 394 kts | 124° |
| 2026-04-26 19:42 | -0.90369 | -89.62233 | 18628 ft | 396 kts | 122° |
| 2026-04-26 19:42 | -0.91683 | -89.59803 | 18981 ft | 398 kts | 116° |
| 2026-04-26 19:43 | -0.92934 | -89.57332 | 19357 ft | 400 kts | 116° |
| 2026-04-26 19:43 | -0.94192 | -89.54846 | 19723 ft | 402 kts | 116° |
| 2026-04-26 19:43 | -0.95458 | -89.52346 | 20082 ft | 404 kts | 116° |
| 2026-04-26 19:43 | -0.96733 | -89.49833 | 20436 ft | 407 kts | 116° |
| 2026-04-26 19:44 | -0.98016 | -89.47308 | 20783 ft | 409 kts | 116° |
| 2026-04-26 19:44 | -0.99305 | -89.44769 | 21118 ft | 411 kts | 116° |
| 2026-04-26 19:44 | -1.00599 | -89.42217 | 21458 ft | 413 kts | 116° |
| 2026-04-26 19:44 | -1.01901 | -89.39651 | 21789 ft | 415 kts | 116° |
| 2026-04-26 19:45 | -1.03206 | -89.37075 | 22123 ft | 417 kts | 116° |
| 2026-04-26 19:45 | -1.04518 | -89.34483 | 22452 ft | 419 kts | 116° |
| 2026-04-26 19:45 | -1.05836 | -89.31877 | 22780 ft | 421 kts | 116° |
| 2026-04-26 19:45 | -1.07162 | -89.29258 | 23091 ft | 423 kts | 116° |
| 2026-04-26 19:46 | -1.08498 | -89.26628 | 23409 ft | 425 kts | 116° |
| 2026-04-26 19:46 | -1.09842 | -89.23984 | 23667 ft | 427 kts | 116° |
| 2026-04-26 19:46 | -1.11191 | -89.21328 | 23927 ft | 429 kts | 116° |
| 2026-04-26 19:46 | -1.12544 | -89.18660 | 24175 ft | 431 kts | 116° |
| 2026-04-26 19:47 | -1.13905 | -89.15981 | 24426 ft | 433 kts | 116° |
| 2026-04-26 19:47 | -1.14810 | -89.14198 | 24592 ft | 434 kts | 116° |
| 2026-04-26 19:47 | -1.16643 | -89.10584 | 24906 ft | 437 kts | 116° |
| 2026-04-26 19:47 | -1.18017 | -89.07867 | 25138 ft | 439 kts | 116° |
| 2026-04-26 19:48 | -1.19396 | -89.05142 | 25375 ft | 441 kts | 116° |
| 2026-04-26 19:48 | -1.20785 | -89.02403 | 25609 ft | 443 kts | 116° |
| 2026-04-26 19:48 | -1.22185 | -88.99651 | 25842 ft | 445 kts | 116° |
| 2026-04-26 19:48 | -1.23588 | -88.96890 | 26074 ft | 447 kts | 116° |
| 2026-04-26 19:49 | -1.24994 | -88.94115 | 26306 ft | 448 kts | 116° |
| 2026-04-26 19:49 | -1.26405 | -88.91329 | 26540 ft | 450 kts | 115° |
| 2026-04-26 19:49 | -1.27824 | -88.88532 | 26768 ft | 452 kts | 115° |
| 2026-04-26 19:49 | -1.29228 | -88.85761 | 26992 ft | 454 kts | 115° |
| 2026-04-26 19:50 | -1.30657 | -88.82939 | 27195 ft | 456 kts | 115° |
| 2026-04-26 19:50 | -1.32090 | -88.80104 | 27421 ft | 458 kts | 115° |
| 2026-04-26 19:50 | -1.33531 | -88.77259 | 27638 ft | 460 kts | 115° |
| 2026-04-26 19:50 | -1.34978 | -88.74404 | 27843 ft | 461 kts | 115° |
| 2026-04-26 19:51 | -1.36431 | -88.71537 | 28045 ft | 463 kts | 115° |
| 2026-04-26 19:51 | -1.37889 | -88.68664 | 28237 ft | 465 kts | 115° |
| 2026-04-26 19:51 | -1.39355 | -88.65773 | 28438 ft | 467 kts | 115° |
| 2026-04-26 19:51 | -1.40824 | -88.62873 | 28622 ft | 469 kts | 115° |
| 2026-04-26 19:52 | -1.42299 | -88.59960 | 28817 ft | 470 kts | 115° |
| 2026-04-26 19:52 | -1.43779 | -88.57042 | 28993 ft | 472 kts | 115° |
| 2026-04-26 19:52 | -1.45266 | -88.54112 | 29182 ft | 474 kts | 115° |
| 2026-04-26 19:52 | -1.46757 | -88.51170 | 29362 ft | 475 kts | 115° |
| 2026-04-26 19:53 | -1.48253 | -88.48214 | 29547 ft | 477 kts | 115° |
| 2026-04-26 19:53 | -1.49748 | -88.45254 | 29795 ft | 477 kts | 115° |
| 2026-04-26 19:53 | -1.51245 | -88.42294 | 30044 ft | 476 kts | 115° |
| 2026-04-26 19:53 | -1.52742 | -88.39341 | 30266 ft | 476 kts | 115° |
| 2026-04-26 19:54 | -1.54239 | -88.36387 | 30473 ft | 477 kts | 115° |
| 2026-04-26 19:54 | -1.55739 | -88.33432 | 30675 ft | 477 kts | 115° |
| 2026-04-26 19:54 | -1.57238 | -88.30471 | 30885 ft | 477 kts | 115° |
| 2026-04-26 19:54 | -1.58739 | -88.27509 | 31087 ft | 477 kts | 116° |
| 2026-04-26 19:55 | -1.60221 | -88.24589 | 31288 ft | 478 kts | 116° |
| 2026-04-26 19:55 | -1.61741 | -88.21587 | 31499 ft | 478 kts | 116° |
| 2026-04-26 19:55 | -1.63241 | -88.18622 | 31710 ft | 478 kts | 116° |
| 2026-04-26 19:55 | -1.64743 | -88.15658 | 31931 ft | 478 kts | 116° |
| 2026-04-26 19:56 | -1.66242 | -88.12692 | 32143 ft | 478 kts | 116° |
| 2026-04-26 19:56 | -1.67740 | -88.09727 | 32352 ft | 478 kts | 116° |
| 2026-04-26 19:56 | -1.69242 | -88.06760 | 32568 ft | 479 kts | 116° |
| 2026-04-26 19:56 | -1.70727 | -88.03831 | 32775 ft | 479 kts | 116° |
| 2026-04-26 19:57 | -1.72233 | -88.00860 | 32876 ft | 479 kts | 116° |
| 2026-04-26 19:57 | -1.73739 | -87.97886 | 32898 ft | 479 kts | 116° |
| 2026-04-26 19:57 | -1.76765 | -87.91899 | 32889 ft | 479 kts | 116° |
| 2026-04-26 19:58 | -1.79753 | -87.85996 | 32888 ft | 479 kts | 116° |
| 2026-04-26 19:58 | -1.82765 | -87.80047 | 32900 ft | 480 kts | 116° |
| 2026-04-26 19:59 | -1.85779 | -87.74090 | 32884 ft | 480 kts | 116° |
| 2026-04-26 19:59 | -1.88796 | -87.68140 | 32900 ft | 480 kts | 116° |
| 2026-04-26 20:00 | -1.91808 | -87.62180 | 32893 ft | 480 kts | 116° |
| 2026-04-26 20:00 | -1.94823 | -87.56226 | 32897 ft | 480 kts | 116° |
| 2026-04-26 20:01 | -1.97837 | -87.50263 | 32894 ft | 481 kts | 116° |
| 2026-04-26 20:01 | -2.00850 | -87.44298 | 32897 ft | 481 kts | 116° |
| 2026-04-26 20:02 | -2.03863 | -87.38335 | 32885 ft | 480 kts | 116° |
| 2026-04-26 20:02 | -2.06374 | -87.33379 | 32895 ft | 481 kts | 116° |
| 2026-04-26 20:03 | -2.09902 | -87.26413 | 32896 ft | 481 kts | 116° |
| 2026-04-26 20:03 | -2.12920 | -87.20445 | 32886 ft | 481 kts | 116° |
| 2026-04-26 20:04 | -2.15936 | -87.14477 | 32899 ft | 481 kts | 116° |
| 2026-04-26 20:04 | -2.18950 | -87.08510 | 32895 ft | 481 kts | 116° |
| 2026-04-26 20:05 | -2.21968 | -87.02540 | 32884 ft | 481 kts | 116° |
| 2026-04-26 20:05 | -2.24980 | -86.96572 | 32897 ft | 481 kts | 116° |
| 2026-04-26 20:06 | -2.27994 | -86.90602 | 32887 ft | 481 kts | 116° |
| 2026-04-26 20:06 | -2.31012 | -86.84627 | 32891 ft | 481 kts | 116° |
| 2026-04-26 20:07 | -2.34024 | -86.78654 | 32893 ft | 481 kts | 116° |
| 2026-04-26 20:07 | -2.37044 | -86.72685 | 32890 ft | 481 kts | 116° |
| 2026-04-26 20:08 | -2.40046 | -86.66748 | 32898 ft | 481 kts | 116° |
| 2026-04-26 20:08 | -2.43062 | -86.60775 | 32891 ft | 482 kts | 116° |
| 2026-04-26 20:09 | -2.46087 | -86.54794 | 32896 ft | 482 kts | 116° |
| 2026-04-26 20:09 | -2.49109 | -86.48813 | 32887 ft | 482 kts | 115° |
| 2026-04-26 20:10 | -2.52123 | -86.42828 | 32898 ft | 482 kts | 115° |
| 2026-04-26 20:10 | -2.55144 | -86.36846 | 32895 ft | 482 kts | 116° |
| 2026-04-26 20:11 | -2.58159 | -86.30860 | 32893 ft | 482 kts | 115° |
| 2026-04-26 20:12 | -2.62683 | -86.21882 | 32896 ft | 482 kts | 115° |
| 2026-04-26 20:12 | -2.65710 | -86.15897 | 32899 ft | 482 kts | 115° |
| 2026-04-26 20:13 | -2.68734 | -86.09917 | 32893 ft | 482 kts | 115° |
| 2026-04-26 20:13 | -2.71750 | -86.03929 | 32901 ft | 482 kts | 115° |
| 2026-04-26 20:14 | -2.74760 | -85.97943 | 32900 ft | 482 kts | 115° |
| 2026-04-26 20:14 | -2.77782 | -85.91953 | 32890 ft | 482 kts | 115° |
| 2026-04-26 20:15 | -2.80293 | -85.86977 | 32899 ft | 482 kts | 115° |
| 2026-04-26 20:15 | -2.83311 | -85.80991 | 32892 ft | 482 kts | 115° |
| 2026-04-26 20:16 | -2.86332 | -85.75005 | 32902 ft | 482 kts | 115° |
| 2026-04-26 20:16 | -2.89353 | -85.69023 | 32890 ft | 482 kts | 115° |
| 2026-04-26 20:17 | -2.92367 | -85.63028 | 32891 ft | 482 kts | 115° |
| 2026-04-26 20:17 | -2.95382 | -85.57037 | 32909 ft | 482 kts | 115° |
| 2026-04-26 20:18 | -2.98403 | -85.51033 | 32894 ft | 482 kts | 115° |
| 2026-04-26 20:18 | -3.01423 | -85.45041 | 32890 ft | 482 kts | 115° |
| 2026-04-26 20:19 | -3.04439 | -85.39052 | 32901 ft | 482 kts | 115° |
| 2026-04-26 20:19 | -3.07451 | -85.33056 | 32894 ft | 482 kts | 115° |
| 2026-04-26 20:20 | -3.10468 | -85.27063 | 32901 ft | 482 kts | 115° |
| 2026-04-26 20:20 | -3.13461 | -85.21107 | 32892 ft | 482 kts | 115° |
| 2026-04-26 20:21 | -3.16476 | -85.15111 | 32895 ft | 482 kts | 115° |
| 2026-04-26 20:21 | -3.19499 | -85.09115 | 32903 ft | 482 kts | 115° |
| 2026-04-26 20:22 | -3.22518 | -85.03121 | 32895 ft | 482 kts | 115° |
| 2026-04-26 20:22 | -3.25534 | -84.97129 | 32901 ft | 482 kts | 115° |
| 2026-04-26 20:23 | -3.28549 | -84.91130 | 32906 ft | 483 kts | 115° |
| 2026-04-26 20:23 | -3.31554 | -84.85121 | 32890 ft | 482 kts | 115° |
| 2026-04-26 20:24 | -3.34568 | -84.79130 | 32905 ft | 482 kts | 115° |
| 2026-04-26 20:24 | -3.37594 | -84.73132 | 32892 ft | 482 kts | 115° |
| 2026-04-26 20:25 | -3.41108 | -84.67420 | 32902 ft | 484 kts | 129° |
| 2026-04-26 20:25 | -3.45837 | -84.62622 | 32902 ft | 484 kts | 135° |
| 2026-04-26 20:26 | -3.50670 | -84.57923 | 32903 ft | 485 kts | 135° |
| 2026-04-26 20:26 | -3.55505 | -84.53214 | 32896 ft | 485 kts | 135° |
| 2026-04-26 20:27 | -3.60335 | -84.48513 | 32900 ft | 485 kts | 135° |
| 2026-04-26 20:27 | -3.65159 | -84.43801 | 32902 ft | 484 kts | 135° |
| 2026-04-26 20:28 | -3.69985 | -84.39092 | 32900 ft | 484 kts | 135° |
| 2026-04-26 20:28 | -3.74815 | -84.34385 | 32905 ft | 484 kts | 135° |
| 2026-04-26 20:29 | -3.79610 | -84.29712 | 32904 ft | 484 kts | 135° |
| 2026-04-26 20:29 | -3.84430 | -84.25008 | 32904 ft | 484 kts | 135° |
| 2026-04-26 20:30 | -3.89245 | -84.20298 | 32904 ft | 484 kts | 135° |
| 2026-04-26 20:30 | -3.94062 | -84.15586 | 32900 ft | 484 kts | 135° |
| 2026-04-26 20:31 | -3.98883 | -84.10880 | 32901 ft | 484 kts | 135° |
| 2026-04-26 20:31 | -4.03697 | -84.06179 | 32905 ft | 483 kts | 135° |
| 2026-04-26 20:32 | -4.08510 | -84.01475 | 32903 ft | 483 kts | 135° |
| 2026-04-26 20:32 | -4.13324 | -83.96768 | 32901 ft | 483 kts | 135° |
| 2026-04-26 20:33 | -4.18137 | -83.92070 | 32904 ft | 483 kts | 135° |
| 2026-04-26 20:33 | -4.22950 | -83.87362 | 32905 ft | 483 kts | 135° |
| 2026-04-26 20:34 | -4.27759 | -83.82663 | 32904 ft | 483 kts | 135° |
| 2026-04-26 20:34 | -4.32534 | -83.77995 | 32900 ft | 482 kts | 135° |
| 2026-04-26 20:35 | -4.37341 | -83.73308 | 32902 ft | 482 kts | 135° |
| 2026-04-26 20:35 | -4.42140 | -83.68620 | 32902 ft | 481 kts | 135° |
| 2026-04-26 20:36 | -4.46928 | -83.63924 | 32899 ft | 481 kts | 134° |
| 2026-04-26 20:36 | -4.51711 | -83.59234 | 32909 ft | 481 kts | 134° |
| 2026-04-26 20:37 | -4.56497 | -83.54553 | 32901 ft | 480 kts | 134° |
| 2026-04-26 20:37 | -4.61284 | -83.49875 | 32903 ft | 480 kts | 134° |
| 2026-04-26 20:38 | -4.66062 | -83.45202 | 32903 ft | 480 kts | 134° |
| 2026-04-26 20:38 | -4.70834 | -83.40521 | 32903 ft | 479 kts | 134° |
| 2026-04-26 20:39 | -4.75596 | -83.35846 | 32904 ft | 479 kts | 134° |
| 2026-04-26 20:39 | -4.80344 | -83.31208 | 32903 ft | 479 kts | 134° |
| 2026-04-26 20:40 | -4.85114 | -83.26542 | 32905 ft | 479 kts | 134° |
| 2026-04-26 20:40 | -4.89872 | -83.21871 | 32905 ft | 479 kts | 134° |
| 2026-04-26 20:41 | -4.94637 | -83.17200 | 32902 ft | 479 kts | 134° |
| 2026-04-26 20:41 | -4.99400 | -83.12530 | 32906 ft | 478 kts | 134° |
| 2026-04-26 20:42 | -5.04152 | -83.07860 | 32903 ft | 478 kts | 134° |
| 2026-04-26 20:42 | -5.08902 | -83.03193 | 32904 ft | 478 kts | 134° |
| 2026-04-26 20:43 | -5.13660 | -82.98529 | 32904 ft | 478 kts | 134° |
| 2026-04-26 20:43 | -5.18420 | -82.93867 | 32911 ft | 478 kts | 134° |
| 2026-04-26 20:44 | -5.23174 | -82.89203 | 32908 ft | 478 kts | 134° |
| 2026-04-26 20:44 | -5.27920 | -82.84535 | 32910 ft | 478 kts | 134° |
| 2026-04-26 20:45 | -5.32664 | -82.79871 | 32903 ft | 477 kts | 134° |
| 2026-04-26 20:45 | -5.37413 | -82.75212 | 32908 ft | 477 kts | 134° |
| 2026-04-26 20:46 | -5.42157 | -82.70557 | 32913 ft | 477 kts | 134° |
| 2026-04-26 20:46 | -5.46890 | -82.65898 | 32906 ft | 477 kts | 134° |
| 2026-04-26 20:47 | -5.51621 | -82.61242 | 32908 ft | 476 kts | 134° |
| 2026-04-26 20:47 | -5.56357 | -82.56584 | 32907 ft | 476 kts | 134° |
| 2026-04-26 20:48 | -5.61093 | -82.51932 | 32911 ft | 476 kts | 134° |
| 2026-04-26 20:48 | -5.65826 | -82.47282 | 32907 ft | 476 kts | 134° |
| 2026-04-26 20:49 | -5.70557 | -82.42631 | 32908 ft | 476 kts | 134° |
| 2026-04-26 20:49 | -5.75284 | -82.37973 | 32909 ft | 476 kts | 134° |
| 2026-04-26 20:50 | -5.80013 | -82.33315 | 32910 ft | 476 kts | 134° |
| 2026-04-26 20:50 | -5.84742 | -82.28658 | 32913 ft | 476 kts | 134° |
| 2026-04-26 20:51 | -5.89471 | -82.24004 | 32913 ft | 476 kts | 134° |
| 2026-04-26 20:51 | -5.94195 | -82.19351 | 32909 ft | 476 kts | 134° |
| 2026-04-26 20:52 | -5.98921 | -82.14692 | 32910 ft | 476 kts | 134° |
| 2026-04-26 20:52 | -6.03649 | -82.10044 | 32912 ft | 476 kts | 134° |
| 2026-04-26 20:53 | -6.08376 | -82.05387 | 32911 ft | 476 kts | 134° |
| 2026-04-26 20:53 | -6.13093 | -82.00721 | 32914 ft | 476 kts | 134° |
| 2026-04-26 20:54 | -6.17813 | -81.96054 | 32914 ft | 476 kts | 134° |
| 2026-04-26 20:54 | -6.22539 | -81.91392 | 32912 ft | 476 kts | 134° |
| 2026-04-26 20:55 | -6.27270 | -81.86734 | 32918 ft | 476 kts | 134° |
| 2026-04-26 20:55 | -6.31966 | -81.82100 | 32915 ft | 476 kts | 134° |
| 2026-04-26 20:56 | -6.36689 | -81.77438 | 32914 ft | 476 kts | 134° |
| 2026-04-26 20:56 | -6.41412 | -81.72767 | 32914 ft | 476 kts | 134° |
| 2026-04-26 20:57 | -6.46135 | -81.68100 | 32915 ft | 476 kts | 134° |
| 2026-04-26 20:57 | -6.50854 | -81.63435 | 32916 ft | 476 kts | 134° |
| 2026-04-26 20:58 | -6.55581 | -81.58766 | 32917 ft | 476 kts | 134° |
| 2026-04-26 20:58 | -6.60312 | -81.54093 | 32918 ft | 477 kts | 134° |
| 2026-04-26 20:59 | -6.64245 | -81.50200 | 32918 ft | 477 kts | 134° |
| 2026-04-26 20:59 | -6.68975 | -81.45526 | 32917 ft | 476 kts | 134° |
| 2026-04-26 21:00 | -6.73699 | -81.40849 | 32917 ft | 476 kts | 134° |
| 2026-04-26 21:00 | -6.78419 | -81.36169 | 32914 ft | 476 kts | 134° |
| 2026-04-26 21:01 | -6.83141 | -81.31491 | 32920 ft | 476 kts | 134° |
| 2026-04-26 21:01 | -6.87860 | -81.26823 | 32927 ft | 476 kts | 134° |
| 2026-04-26 21:02 | -6.92578 | -81.22147 | 32918 ft | 476 kts | 134° |
| 2026-04-26 21:02 | -6.97288 | -81.17475 | 32921 ft | 475 kts | 134° |
| 2026-04-26 21:03 | -7.01999 | -81.12801 | 32921 ft | 475 kts | 134° |
| 2026-04-26 21:03 | -7.06709 | -81.08123 | 32921 ft | 475 kts | 134° |
| 2026-04-26 21:04 | -7.11413 | -81.03456 | 32919 ft | 475 kts | 134° |
| 2026-04-26 21:04 | -7.16123 | -80.98790 | 32921 ft | 475 kts | 134° |
| 2026-04-26 21:05 | -7.20830 | -80.94130 | 32924 ft | 474 kts | 134° |
| 2026-04-26 21:05 | -7.25530 | -80.89465 | 32917 ft | 474 kts | 134° |
| 2026-04-26 21:06 | -7.30233 | -80.84790 | 32920 ft | 475 kts | 134° |
| 2026-04-26 21:06 | -7.34922 | -80.80116 | 32919 ft | 474 kts | 134° |
| 2026-04-26 21:07 | -7.39618 | -80.75443 | 32923 ft | 474 kts | 134° |
| 2026-04-26 21:07 | -7.44322 | -80.70788 | 32918 ft | 474 kts | 134° |
| 2026-04-26 21:08 | -7.49025 | -80.66127 | 32920 ft | 474 kts | 134° |
| 2026-04-26 21:08 | -7.53722 | -80.61451 | 32923 ft | 474 kts | 134° |
| 2026-04-26 21:09 | -7.58384 | -80.56801 | 32922 ft | 474 kts | 134° |
| 2026-04-26 21:09 | -7.63075 | -80.52125 | 32919 ft | 474 kts | 134° |
| 2026-04-26 21:10 | -7.67768 | -80.47448 | 32920 ft | 474 kts | 134° |
| 2026-04-26 21:10 | -7.72474 | -80.42773 | 32924 ft | 475 kts | 134° |
| 2026-04-26 21:11 | -7.77178 | -80.38092 | 32922 ft | 475 kts | 134° |
| 2026-04-26 21:11 | -7.81872 | -80.33404 | 32925 ft | 475 kts | 134° |
| 2026-04-26 21:12 | -7.86578 | -80.28706 | 32921 ft | 475 kts | 134° |
| 2026-04-26 21:12 | -7.91281 | -80.24016 | 32923 ft | 476 kts | 134° |
| 2026-04-26 21:13 | -7.95990 | -80.19321 | 32921 ft | 476 kts | 134° |
| 2026-04-26 21:13 | -8.00698 | -80.14622 | 32923 ft | 476 kts | 134° |
| 2026-04-26 21:14 | -8.05404 | -80.09916 | 32923 ft | 476 kts | 134° |
| 2026-04-26 21:14 | -8.10114 | -80.05213 | 32923 ft | 477 kts | 134° |
| 2026-04-26 21:15 | -8.14830 | -80.00506 | 32925 ft | 477 kts | 134° |
| 2026-04-26 21:15 | -8.19548 | -79.95792 | 32923 ft | 477 kts | 134° |
| 2026-04-26 21:16 | -8.24266 | -79.91079 | 32922 ft | 477 kts | 134° |
| 2026-04-26 21:16 | -8.28985 | -79.86354 | 32921 ft | 478 kts | 134° |
| 2026-04-26 21:17 | -8.33706 | -79.81632 | 32922 ft | 478 kts | 134° |
| 2026-04-26 21:17 | -8.38422 | -79.76907 | 32922 ft | 477 kts | 134° |
| 2026-04-26 21:18 | -8.43134 | -79.72185 | 32927 ft | 477 kts | 134° |
| 2026-04-26 21:18 | -8.48130 | -79.67827 | 32929 ft | 478 kts | 140° |
| 2026-04-26 21:19 | -8.53309 | -79.63607 | 32927 ft | 479 kts | 140° |
| 2026-04-26 21:19 | -8.58492 | -79.59371 | 32928 ft | 479 kts | 140° |
| 2026-04-26 21:20 | -8.63673 | -79.55137 | 32929 ft | 479 kts | 140° |
| 2026-04-26 21:20 | -8.68855 | -79.50900 | 32927 ft | 479 kts | 140° |
| 2026-04-26 21:21 | -8.74039 | -79.46664 | 32930 ft | 479 kts | 140° |
| 2026-04-26 21:21 | -8.79226 | -79.42428 | 32929 ft | 479 kts | 140° |
| 2026-04-26 21:22 | -8.84410 | -79.38187 | 32928 ft | 479 kts | 140° |
| 2026-04-26 21:22 | -8.89592 | -79.33940 | 32928 ft | 479 kts | 140° |
| 2026-04-26 21:23 | -8.97373 | -79.27567 | 32932 ft | 480 kts | 140° |
| 2026-04-26 21:23 | -9.02564 | -79.23322 | 32930 ft | 480 kts | 140° |
| 2026-04-26 21:24 | -9.07752 | -79.19074 | 32933 ft | 480 kts | 140° |
| 2026-04-26 21:24 | -9.12947 | -79.14824 | 32934 ft | 480 kts | 140° |
| 2026-04-26 21:25 | -9.18142 | -79.10567 | 32933 ft | 481 kts | 140° |
| 2026-04-26 21:25 | -9.23337 | -79.06301 | 32938 ft | 481 kts | 140° |
| 2026-04-26 21:26 | -9.28530 | -79.02032 | 32937 ft | 481 kts | 140° |
| 2026-04-26 21:26 | -9.33729 | -78.97763 | 32937 ft | 481 kts | 140° |
| 2026-04-26 21:27 | -9.38929 | -78.93486 | 32936 ft | 481 kts | 140° |
| 2026-04-26 21:27 | -9.44129 | -78.89212 | 32940 ft | 481 kts | 140° |
| 2026-04-26 21:28 | -9.49332 | -78.84937 | 32941 ft | 482 kts | 140° |
| 2026-04-26 21:28 | -9.54540 | -78.80667 | 32942 ft | 482 kts | 140° |
| 2026-04-26 21:29 | -9.59751 | -78.76387 | 32942 ft | 482 kts | 140° |
| 2026-04-26 21:29 | -9.64917 | -78.72128 | 32944 ft | 482 kts | 140° |
| 2026-04-26 21:30 | -9.70035 | -78.67739 | 32944 ft | 481 kts | 133° |
| 2026-04-26 21:30 | -9.73561 | -78.63347 | 32947 ft | 479 kts | 126° |
| 2026-04-26 21:31 | -9.78217 | -78.57062 | 32949 ft | 479 kts | 126° |
| 2026-04-26 21:31 | -9.82218 | -78.51658 | 32952 ft | 479 kts | 126° |
| 2026-04-26 21:32 | -9.86225 | -78.46263 | 32958 ft | 479 kts | 126° |
| 2026-04-26 21:32 | -9.90229 | -78.40867 | 32961 ft | 479 kts | 126° |
| 2026-04-26 21:33 | -9.94231 | -78.35460 | 32962 ft | 479 kts | 126° |
| 2026-04-26 21:33 | -9.98230 | -78.30066 | 32964 ft | 479 kts | 126° |
| 2026-04-26 21:34 | -10.02237 | -78.24667 | 32964 ft | 479 kts | 126° |
| 2026-04-26 21:34 | -10.06239 | -78.19262 | 32973 ft | 479 kts | 126° |
| 2026-04-26 21:35 | -10.10238 | -78.13850 | 32974 ft | 479 kts | 126° |
| 2026-04-26 21:35 | -10.14233 | -78.08442 | 32976 ft | 479 kts | 126° |
| 2026-04-26 21:36 | -10.17553 | -78.03940 | 32982 ft | 479 kts | 126° |
| 2026-04-26 21:36 | -10.21427 | -77.97175 | 32988 ft | 477 kts | 113° |
| 2026-04-26 21:37 | -10.24163 | -77.91025 | 32997 ft | 477 kts | 113° |
| 2026-04-26 21:37 | -10.26899 | -77.84884 | 33008 ft | 478 kts | 113° |
| 2026-04-26 21:38 | -10.29634 | -77.78740 | 33017 ft | 477 kts | 113° |
| 2026-04-26 21:38 | -10.32366 | -77.72600 | 33030 ft | 477 kts | 113° |
| 2026-04-26 21:39 | -10.35092 | -77.66466 | 33042 ft | 476 kts | 113° |
| 2026-04-26 21:39 | -10.37817 | -77.60330 | 33055 ft | 477 kts | 113° |
| 2026-04-26 21:40 | -10.40083 | -77.55232 | 33060 ft | 477 kts | 113° |
| 2026-04-26 21:40 | -10.42806 | -77.49096 | 33074 ft | 476 kts | 113° |
| 2026-04-26 21:41 | -10.45531 | -77.42960 | 33088 ft | 476 kts | 113° |
| 2026-04-26 21:41 | -10.48249 | -77.36822 | 33097 ft | 476 kts | 113° |
| 2026-04-26 21:42 | -10.50963 | -77.30685 | 33109 ft | 476 kts | 113° |
| 2026-04-26 21:42 | -10.54176 | -77.24805 | 33118 ft | 475 kts | 118° |
| 2026-04-26 21:43 | -10.57468 | -77.18981 | 33132 ft | 475 kts | 118° |
| 2026-04-26 21:43 | -10.60756 | -77.13151 | 33140 ft | 475 kts | 118° |
| 2026-04-26 21:44 | -10.64040 | -77.07320 | 33144 ft | 475 kts | 118° |
| 2026-04-26 21:44 | -10.67328 | -77.01487 | 33153 ft | 475 kts | 118° |
| 2026-04-26 21:45 | -10.70614 | -76.95657 | 33158 ft | 475 kts | 118° |
| 2026-04-26 21:45 | -10.73898 | -76.89832 | 33158 ft | 475 kts | 118° |
| 2026-04-26 21:46 | -10.77181 | -76.83995 | 33164 ft | 475 kts | 118° |
| 2026-04-26 21:46 | -10.80455 | -76.78164 | 33157 ft | 475 kts | 118° |
| 2026-04-26 21:47 | -10.83740 | -76.72338 | 33159 ft | 474 kts | 118° |
| 2026-04-26 21:47 | -10.87014 | -76.66519 | 33159 ft | 474 kts | 118° |
| 2026-04-26 21:48 | -10.90276 | -76.60692 | 33147 ft | 474 kts | 118° |
| 2026-04-26 21:48 | -10.93521 | -76.54905 | 33147 ft | 473 kts | 118° |
| 2026-04-26 21:49 | -10.96784 | -76.49087 | 33139 ft | 473 kts | 118° |
| 2026-04-26 21:49 | -11.00046 | -76.43275 | 33130 ft | 473 kts | 118° |
| 2026-04-26 21:50 | -11.03314 | -76.37449 | 33129 ft | 473 kts | 118° |
| 2026-04-26 21:50 | -11.06574 | -76.31625 | 33125 ft | 473 kts | 118° |
| 2026-04-26 21:51 | -11.09832 | -76.25801 | 33123 ft | 474 kts | 118° |
| 2026-04-26 21:51 | -11.13096 | -76.19958 | 33119 ft | 474 kts | 118° |
| 2026-04-26 21:52 | -11.16353 | -76.14132 | 33120 ft | 473 kts | 118° |
| 2026-04-26 21:52 | -11.19614 | -76.08308 | 33121 ft | 473 kts | 118° |
| 2026-04-26 21:53 | -11.22871 | -76.02486 | 33123 ft | 473 kts | 118° |
| 2026-04-26 21:53 | -11.26119 | -75.96659 | 33123 ft | 473 kts | 118° |
| 2026-04-26 21:54 | -11.29358 | -75.90839 | 33122 ft | 472 kts | 118° |
| 2026-04-26 21:54 | -11.32602 | -75.85019 | 33125 ft | 472 kts | 118° |
| 2026-04-26 21:55 | -11.35847 | -75.79200 | 33123 ft | 472 kts | 118° |
| 2026-04-26 21:55 | -11.39089 | -75.73382 | 33121 ft | 472 kts | 118° |
| 2026-04-26 21:56 | -11.42306 | -75.67594 | 33116 ft | 472 kts | 118° |
| 2026-04-26 21:56 | -11.45542 | -75.61774 | 33116 ft | 472 kts | 118° |
| 2026-04-26 21:57 | -11.48781 | -75.55959 | 33176 ft | 471 kts | 118° |
| 2026-04-26 21:57 | -11.52012 | -75.50142 | 33234 ft | 471 kts | 118° |
| 2026-04-26 21:58 | -11.55235 | -75.44327 | 33275 ft | 471 kts | 118° |
| 2026-04-26 21:58 | -11.58470 | -75.38511 | 33297 ft | 471 kts | 118° |
| 2026-04-26 21:59 | -11.61707 | -75.32693 | 33296 ft | 471 kts | 118° |
| 2026-04-26 21:59 | -11.64929 | -75.26867 | 33269 ft | 472 kts | 118° |
| 2026-04-26 22:00 | -11.68154 | -75.21033 | 33226 ft | 472 kts | 118° |
| 2026-04-26 22:00 | -11.71380 | -75.15201 | 33170 ft | 472 kts | 118° |
| 2026-04-26 22:01 | -11.74608 | -75.09357 | 33122 ft | 473 kts | 118° |
| 2026-04-26 22:01 | -11.77840 | -75.03509 | 33113 ft | 473 kts | 118° |
| 2026-04-26 22:02 | -11.80529 | -74.98647 | 33115 ft | 473 kts | 118° |
| 2026-04-26 22:02 | -11.84307 | -74.91823 | 33109 ft | 472 kts | 118° |
| 2026-04-26 22:03 | -11.87530 | -74.85981 | 33100 ft | 472 kts | 118° |
| 2026-04-26 22:03 | -11.90740 | -74.80142 | 33088 ft | 471 kts | 118° |
| 2026-04-26 22:04 | -11.93953 | -74.74315 | 33077 ft | 471 kts | 118° |
| 2026-04-26 22:04 | -11.97166 | -74.68492 | 33069 ft | 470 kts | 118° |
| 2026-04-26 22:05 | -12.00373 | -74.62675 | 33058 ft | 470 kts | 118° |
| 2026-04-26 22:05 | -12.03559 | -74.56889 | 33047 ft | 470 kts | 118° |
| 2026-04-26 22:06 | -12.06757 | -74.51066 | 33037 ft | 470 kts | 118° |
| 2026-04-26 22:06 | -12.09954 | -74.45241 | 33029 ft | 469 kts | 118° |
| 2026-04-26 22:07 | -12.13157 | -74.39421 | 33021 ft | 469 kts | 118° |
| 2026-04-26 22:07 | -12.16352 | -74.33602 | 33007 ft | 469 kts | 118° |
| 2026-04-26 22:08 | -12.19546 | -74.27782 | 33004 ft | 469 kts | 118° |
| 2026-04-26 22:08 | -12.22732 | -74.21963 | 32997 ft | 469 kts | 118° |
| 2026-04-26 22:09 | -12.25919 | -74.16145 | 32991 ft | 469 kts | 118° |
| 2026-04-26 22:09 | -12.29106 | -74.10339 | 32992 ft | 468 kts | 118° |
| 2026-04-26 22:10 | -12.32291 | -74.04527 | 32990 ft | 468 kts | 118° |
| 2026-04-26 22:10 | -12.35471 | -73.98713 | 32991 ft | 468 kts | 118° |
| 2026-04-26 22:11 | -12.38622 | -73.92944 | 33001 ft | 468 kts | 118° |
| 2026-04-26 22:11 | -12.41789 | -73.87132 | 33003 ft | 468 kts | 118° |
| 2026-04-26 22:12 | -12.44959 | -73.81323 | 33014 ft | 467 kts | 118° |
| 2026-04-26 22:12 | -12.48128 | -73.75515 | 33019 ft | 467 kts | 118° |
| 2026-04-26 22:13 | -12.51293 | -73.69708 | 33019 ft | 467 kts | 118° |
| 2026-04-26 22:13 | -12.54454 | -73.63906 | 33017 ft | 466 kts | 118° |
| 2026-04-26 22:14 | -12.57609 | -73.58111 | 33019 ft | 466 kts | 118° |
| 2026-04-26 22:14 | -12.60766 | -73.52317 | 33018 ft | 466 kts | 118° |
| 2026-04-26 22:15 | -12.63916 | -73.46523 | 33014 ft | 466 kts | 118° |
| 2026-04-26 22:15 | -12.67064 | -73.40729 | 33010 ft | 465 kts | 118° |
| 2026-04-26 22:16 | -12.70209 | -73.34933 | 33005 ft | 466 kts | 118° |
| 2026-04-26 22:16 | -12.73355 | -73.29130 | 33006 ft | 466 kts | 118° |
| 2026-04-26 22:17 | -12.76482 | -73.23360 | 33014 ft | 466 kts | 118° |
| 2026-04-26 22:17 | -12.79628 | -73.17557 | 33018 ft | 466 kts | 118° |
| 2026-04-26 22:18 | -12.82771 | -73.11749 | 33026 ft | 466 kts | 118° |
| 2026-04-26 22:18 | -12.85913 | -73.05948 | 33044 ft | 466 kts | 118° |
| 2026-04-26 22:19 | -12.89060 | -73.00148 | 33057 ft | 466 kts | 118° |
| 2026-04-26 22:19 | -12.92201 | -72.94348 | 33065 ft | 465 kts | 118° |
| 2026-04-26 22:20 | -12.94804 | -72.89527 | 33076 ft | 465 kts | 118° |
| 2026-04-26 22:20 | -12.98461 | -72.82745 | 33089 ft | 465 kts | 118° |
| 2026-04-26 22:21 | -13.01584 | -72.76943 | 33098 ft | 465 kts | 118° |
| 2026-04-26 22:21 | -13.04704 | -72.71139 | 33102 ft | 465 kts | 118° |
| 2026-04-26 22:22 | -13.07827 | -72.65337 | 33108 ft | 465 kts | 118° |
| 2026-04-26 22:22 | -13.10950 | -72.59533 | 33118 ft | 464 kts | 118° |
| 2026-04-26 22:23 | -13.14072 | -72.53738 | 33119 ft | 464 kts | 118° |
| 2026-04-26 22:23 | -13.17191 | -72.47940 | 33120 ft | 464 kts | 118° |
| 2026-04-26 22:24 | -13.20308 | -72.42140 | 33113 ft | 464 kts | 118° |
| 2026-04-26 22:24 | -13.22898 | -72.37320 | 33115 ft | 464 kts | 118° |
| 2026-04-26 22:25 | -13.26008 | -72.31519 | 33110 ft | 464 kts | 118° |
| 2026-04-26 22:25 | -13.29118 | -72.25717 | 33103 ft | 463 kts | 118° |
| 2026-04-26 22:26 | -13.32232 | -72.19922 | 33133 ft | 463 kts | 118° |
| 2026-04-26 22:26 | -13.35341 | -72.14129 | 33203 ft | 463 kts | 118° |
| 2026-04-26 22:27 | -13.38446 | -72.08327 | 33272 ft | 463 kts | 118° |
| 2026-04-26 22:27 | -13.41546 | -72.02527 | 33343 ft | 463 kts | 118° |
| 2026-04-26 22:28 | -13.44637 | -71.96722 | 33407 ft | 463 kts | 118° |
| 2026-04-26 22:28 | -13.47732 | -71.90922 | 33410 ft | 463 kts | 118° |
| 2026-04-26 22:29 | -13.49283 | -71.88021 | 33071 ft | 463 kts | 118° |
| 2026-04-26 22:29 | -13.50834 | -71.85126 | 33067 ft | 462 kts | 118° |
| 2026-04-26 22:29 | -13.53933 | -71.79328 | 33074 ft | 462 kts | 118° |
| 2026-04-26 22:30 | -13.56992 | -71.73578 | 33076 ft | 462 kts | 118° |
| 2026-04-26 22:30 | -13.60073 | -71.67790 | 33080 ft | 461 kts | 118° |
| 2026-04-26 22:31 | -13.63155 | -71.62008 | 33088 ft | 461 kts | 118° |
| 2026-04-26 22:31 | -13.65457 | -71.55896 | 33101 ft | 460 kts | 101° |
| 2026-04-26 22:32 | -13.66658 | -71.49422 | 33111 ft | 461 kts | 101° |
| 2026-04-26 22:32 | -13.67867 | -71.42949 | 33126 ft | 461 kts | 101° |
| 2026-04-26 22:33 | -13.69690 | -71.33231 | 33140 ft | 461 kts | 101° |
| 2026-04-26 22:34 | -13.70896 | -71.26749 | 33149 ft | 461 kts | 101° |
| 2026-04-26 22:34 | -13.72098 | -71.20265 | 33157 ft | 462 kts | 101° |
| 2026-04-26 22:35 | -13.73296 | -71.13784 | 33167 ft | 462 kts | 101° |
| 2026-04-26 22:35 | -13.74497 | -71.07302 | 33175 ft | 462 kts | 101° |
| 2026-04-26 22:36 | -13.75703 | -71.00803 | 33181 ft | 462 kts | 101° |
| 2026-04-26 22:36 | -13.76902 | -70.94322 | 33179 ft | 462 kts | 101° |
| 2026-04-26 22:37 | -13.78099 | -70.87815 | 33179 ft | 463 kts | 101° |
| 2026-04-26 22:37 | -13.79295 | -70.81310 | 33179 ft | 463 kts | 101° |
| 2026-04-26 22:38 | -13.80487 | -70.74805 | 33173 ft | 463 kts | 101° |
| 2026-04-26 22:38 | -13.81680 | -70.68292 | 33175 ft | 463 kts | 101° |
| 2026-04-26 22:39 | -13.82870 | -70.61796 | 33175 ft | 462 kts | 101° |
| 2026-04-26 22:39 | -13.84060 | -70.55291 | 33174 ft | 462 kts | 101° |
| 2026-04-26 22:40 | -13.85248 | -70.48787 | 33168 ft | 462 kts | 101° |
| 2026-04-26 22:40 | -13.86435 | -70.42281 | 33167 ft | 463 kts | 101° |
| 2026-04-26 22:41 | -13.87619 | -70.35775 | 33160 ft | 462 kts | 101° |
| 2026-04-26 22:41 | -13.88810 | -70.29270 | 33159 ft | 462 kts | 101° |
| 2026-04-26 22:42 | -13.89992 | -70.22772 | 33149 ft | 462 kts | 101° |
| 2026-04-26 22:42 | -13.91159 | -70.16301 | 33146 ft | 462 kts | 101° |
| 2026-04-26 22:43 | -13.92335 | -70.09794 | 33145 ft | 462 kts | 101° |
| 2026-04-26 22:43 | -13.93514 | -70.03287 | 33137 ft | 462 kts | 101° |
| 2026-04-26 22:44 | -13.94690 | -69.96781 | 33130 ft | 462 kts | 101° |
| 2026-04-26 22:44 | -13.95869 | -69.90276 | 33123 ft | 462 kts | 101° |
| 2026-04-26 22:45 | -13.97042 | -69.83774 | 33113 ft | 462 kts | 100° |
| 2026-04-26 22:45 | -13.98204 | -69.77270 | 33104 ft | 462 kts | 100° |
| 2026-04-26 22:46 | -13.99372 | -69.70770 | 33093 ft | 462 kts | 100° |
| 2026-04-26 22:46 | -14.00537 | -69.64270 | 33083 ft | 462 kts | 100° |
| 2026-04-26 22:47 | -14.01696 | -69.57771 | 33072 ft | 461 kts | 100° |
| 2026-04-26 22:47 | -14.02853 | -69.51278 | 33067 ft | 461 kts | 100° |
| 2026-04-26 22:48 | -14.04005 | -69.44769 | 33052 ft | 462 kts | 100° |
| 2026-04-26 22:48 | -14.05157 | -69.38265 | 33042 ft | 462 kts | 100° |
| 2026-04-26 22:49 | -14.06314 | -69.31768 | 33033 ft | 462 kts | 100° |
| 2026-04-26 22:49 | -14.07678 | -69.25303 | 33026 ft | 462 kts | 109° |
| 2026-04-26 22:50 | -14.10607 | -69.19426 | 33028 ft | 463 kts | 121° |
| 2026-04-26 22:50 | -14.14010 | -69.13790 | 33027 ft | 463 kts | 121° |
| 2026-04-26 22:51 | -14.17401 | -69.08145 | 33028 ft | 463 kts | 121° |
| 2026-04-26 22:51 | -14.20788 | -69.02501 | 33028 ft | 463 kts | 121° |
| 2026-04-26 22:52 | -14.24175 | -68.96858 | 33024 ft | 463 kts | 121° |
| 2026-04-26 22:52 | -14.27543 | -68.91252 | 33024 ft | 463 kts | 121° |
| 2026-04-26 22:53 | -14.30926 | -68.85605 | 33018 ft | 463 kts | 121° |
| 2026-04-26 22:53 | -14.34314 | -68.79961 | 33015 ft | 463 kts | 121° |
| 2026-04-26 22:54 | -14.37698 | -68.74315 | 33007 ft | 463 kts | 121° |
| 2026-04-26 22:54 | -14.41077 | -68.68672 | 33004 ft | 463 kts | 121° |
| 2026-04-26 22:55 | -14.44455 | -68.63022 | 33001 ft | 463 kts | 121° |
| 2026-04-26 22:55 | -14.47836 | -68.57370 | 32995 ft | 463 kts | 121° |
| 2026-04-26 22:56 | -14.51215 | -68.51716 | 32994 ft | 463 kts | 121° |
| 2026-04-26 22:56 | -14.54588 | -68.46061 | 32990 ft | 462 kts | 120° |
| 2026-04-26 22:57 | -14.57962 | -68.40414 | 32992 ft | 462 kts | 120° |
| 2026-04-26 22:57 | -14.61326 | -68.34763 | 32990 ft | 462 kts | 120° |
| 2026-04-26 22:58 | -14.64684 | -68.29111 | 32984 ft | 462 kts | 120° |
| 2026-04-26 22:58 | -14.68054 | -68.23458 | 32983 ft | 461 kts | 120° |
| 2026-04-26 22:59 | -14.71419 | -68.17814 | 32980 ft | 461 kts | 120° |
| 2026-04-26 22:59 | -14.74773 | -68.12162 | 32968 ft | 461 kts | 120° |
| 2026-04-26 23:00 | -14.78122 | -68.06516 | 32963 ft | 461 kts | 120° |
| 2026-04-26 23:00 | -14.81481 | -68.00858 | 32957 ft | 461 kts | 120° |
| 2026-04-26 23:01 | -14.84833 | -67.95207 | 32952 ft | 461 kts | 120° |
| 2026-04-26 23:01 | -14.88184 | -67.89546 | 32950 ft | 461 kts | 120° |
| 2026-04-26 23:02 | -14.91535 | -67.83884 | 32941 ft | 461 kts | 120° |
| 2026-04-26 23:02 | -14.94883 | -67.78220 | 32931 ft | 462 kts | 120° |
| 2026-04-26 23:03 | -14.98239 | -67.72551 | 32928 ft | 462 kts | 120° |
| 2026-04-26 23:03 | -15.01591 | -67.66888 | 32925 ft | 462 kts | 120° |
| 2026-04-26 23:04 | -15.04942 | -67.61216 | 32921 ft | 462 kts | 120° |
| 2026-04-26 23:04 | -15.08268 | -67.55575 | 32916 ft | 462 kts | 120° |
| 2026-04-26 23:05 | -15.11614 | -67.49897 | 32918 ft | 462 kts | 120° |
| 2026-04-26 23:05 | -15.14962 | -67.44209 | 32913 ft | 463 kts | 120° |
| 2026-04-26 23:06 | -15.18315 | -67.38518 | 32916 ft | 463 kts | 120° |
| 2026-04-26 23:06 | -15.21668 | -67.32826 | 32920 ft | 463 kts | 120° |
| 2026-04-26 23:07 | -15.25023 | -67.27115 | 32920 ft | 463 kts | 120° |
| 2026-04-26 23:07 | -15.28371 | -67.21413 | 32922 ft | 464 kts | 120° |
| 2026-04-26 23:08 | -15.31162 | -67.16670 | 32926 ft | 464 kts | 120° |
| 2026-04-26 23:08 | -15.34514 | -67.10961 | 32930 ft | 464 kts | 120° |
| 2026-04-26 23:09 | -15.37859 | -67.05244 | 32944 ft | 464 kts | 120° |
| 2026-04-26 23:09 | -15.41206 | -66.99527 | 32945 ft | 464 kts | 120° |
| 2026-04-26 23:10 | -15.44558 | -66.93800 | 32951 ft | 464 kts | 120° |
| 2026-04-26 23:10 | -15.47902 | -66.88078 | 32956 ft | 464 kts | 120° |
| 2026-04-26 23:11 | -15.51251 | -66.82345 | 32962 ft | 465 kts | 120° |
| 2026-04-26 23:11 | -15.54600 | -66.76612 | 32964 ft | 465 kts | 120° |
| 2026-04-26 23:12 | -15.57942 | -66.70870 | 32964 ft | 465 kts | 120° |
| 2026-04-26 23:12 | -15.61294 | -66.65129 | 32964 ft | 465 kts | 120° |
| 2026-04-26 23:13 | -15.64647 | -66.59389 | 32964 ft | 465 kts | 120° |
| 2026-04-26 23:13 | -15.67984 | -66.53677 | 32966 ft | 466 kts | 120° |
| 2026-04-26 23:14 | -15.71363 | -66.47941 | 32968 ft | 466 kts | 120° |
| 2026-04-26 23:14 | -15.74742 | -66.42203 | 32965 ft | 466 kts | 120° |
| 2026-04-26 23:15 | -15.78117 | -66.36448 | 32967 ft | 466 kts | 120° |
| 2026-04-26 23:15 | -15.81486 | -66.30704 | 32961 ft | 466 kts | 120° |
| 2026-04-26 23:15 | -15.83173 | -66.27826 | 33102 ft | 467 kts | 120° |
| 2026-04-26 23:16 | -15.84864 | -66.24939 | 33443 ft | 466 kts | 120° |
| 2026-04-26 23:16 | -15.86547 | -66.22065 | 33790 ft | 465 kts | 120° |
| 2026-04-26 23:16 | -15.88227 | -66.19200 | 34092 ft | 465 kts | 120° |
| 2026-04-26 23:16 | -15.89906 | -66.16332 | 34373 ft | 464 kts | 120° |
| 2026-04-26 23:17 | -15.91581 | -66.13468 | 34645 ft | 464 kts | 120° |
| 2026-04-26 23:17 | -15.93262 | -66.10591 | 34892 ft | 465 kts | 120° |
| 2026-04-26 23:17 | -15.94939 | -66.07725 | 34960 ft | 463 kts | 120° |
| 2026-04-26 23:18 | -15.98274 | -66.02026 | 34973 ft | 461 kts | 120° |
| 2026-04-26 23:18 | -16.01576 | -65.96363 | 34969 ft | 461 kts | 120° |
| 2026-04-26 23:19 | -16.04894 | -65.90661 | 34972 ft | 461 kts | 120° |
| 2026-04-26 23:19 | -16.08216 | -65.84960 | 34973 ft | 461 kts | 120° |
| 2026-04-26 23:20 | -16.11542 | -65.79266 | 34977 ft | 461 kts | 120° |
| 2026-04-26 23:20 | -16.14862 | -65.73563 | 34982 ft | 461 kts | 120° |
| 2026-04-26 23:21 | -16.18169 | -65.67849 | 34985 ft | 461 kts | 120° |
| 2026-04-26 23:21 | -16.21486 | -65.62144 | 34984 ft | 461 kts | 120° |
| 2026-04-26 23:22 | -16.24807 | -65.56442 | 34985 ft | 461 kts | 120° |
| 2026-04-26 23:22 | -16.28125 | -65.50733 | 34984 ft | 461 kts | 120° |
| 2026-04-26 23:23 | -16.31436 | -65.45024 | 34985 ft | 461 kts | 120° |
| 2026-04-26 23:23 | -16.34751 | -65.39296 | 34983 ft | 462 kts | 120° |
| 2026-04-26 23:24 | -16.38055 | -65.33565 | 34979 ft | 461 kts | 120° |
| 2026-04-26 23:24 | -16.41357 | -65.27834 | 34978 ft | 461 kts | 120° |
| 2026-04-26 23:25 | -16.44654 | -65.22104 | 34975 ft | 462 kts | 120° |
| 2026-04-26 23:25 | -16.47965 | -65.16371 | 34977 ft | 462 kts | 120° |
| 2026-04-26 23:26 | -16.51282 | -65.10641 | 34975 ft | 462 kts | 120° |
| 2026-04-26 23:26 | -16.54594 | -65.04903 | 34971 ft | 462 kts | 120° |
| 2026-04-26 23:27 | -16.57911 | -64.99150 | 34973 ft | 463 kts | 120° |
| 2026-04-26 23:27 | -16.61219 | -64.93383 | 34965 ft | 465 kts | 121° |
| 2026-04-26 23:28 | -16.64550 | -64.87586 | 34947 ft | 467 kts | 121° |
| 2026-04-26 23:28 | -16.67899 | -64.81771 | 34949 ft | 468 kts | 121° |
| 2026-04-26 23:29 | -16.71245 | -64.75951 | 34916 ft | 470 kts | 121° |
| 2026-04-26 23:29 | -16.72922 | -64.73023 | 34680 ft | 470 kts | 121° |
| 2026-04-26 23:29 | -16.74596 | -64.70091 | 34448 ft | 470 kts | 121° |
| 2026-04-26 23:29 | -16.76273 | -64.67157 | 34229 ft | 471 kts | 121° |
| 2026-04-26 23:30 | -16.77957 | -64.64212 | 33949 ft | 472 kts | 121° |
| 2026-04-26 23:30 | -16.79642 | -64.61274 | 33563 ft | 472 kts | 121° |
| 2026-04-26 23:30 | -16.81322 | -64.58341 | 33182 ft | 472 kts | 121° |
| 2026-04-26 23:30 | -16.82985 | -64.55435 | 32808 ft | 471 kts | 121° |
| 2026-04-26 23:31 | -16.84664 | -64.52498 | 32439 ft | 471 kts | 121° |
| 2026-04-26 23:31 | -16.86339 | -64.49569 | 32071 ft | 468 kts | 121° |
| 2026-04-26 23:31 | -16.88000 | -64.46663 | 31713 ft | 464 kts | 121° |
| 2026-04-26 23:31 | -16.89645 | -64.43780 | 31352 ft | 461 kts | 121° |
| 2026-04-26 23:32 | -16.91284 | -64.40910 | 31003 ft | 458 kts | 121° |
| 2026-04-26 23:32 | -16.92912 | -64.38062 | 30648 ft | 455 kts | 121° |
| 2026-04-26 23:32 | -16.94528 | -64.35237 | 30311 ft | 452 kts | 121° |
| 2026-04-26 23:32 | -16.96132 | -64.32429 | 29965 ft | 448 kts | 121° |
| 2026-04-26 23:33 | -16.97723 | -64.29639 | 29568 ft | 445 kts | 121° |
| 2026-04-26 23:33 | -16.99301 | -64.26874 | 29168 ft | 442 kts | 121° |
| 2026-04-26 23:33 | -17.00866 | -64.24125 | 28783 ft | 439 kts | 121° |
| 2026-04-26 23:33 | -17.02423 | -64.21383 | 27939 ft | 441 kts | 121° |
| 2026-04-26 23:34 | -17.03989 | -64.18618 | 26655 ft | 443 kts | 121° |
| 2026-04-26 23:34 | -17.05553 | -64.15856 | 25527 ft | 440 kts | 121° |
| 2026-04-26 23:34 | -17.07102 | -64.13124 | 24540 ft | 434 kts | 121° |
| 2026-04-26 23:34 | -17.08616 | -64.10461 | 24011 ft | 417 kts | 121° |
| 2026-04-26 23:35 | -17.10088 | -64.07882 | 23522 ft | 411 kts | 121° |
| 2026-04-26 23:35 | -17.11550 | -64.05317 | 22976 ft | 408 kts | 121° |
| 2026-04-26 23:35 | -17.12986 | -64.02791 | 22502 ft | 403 kts | 121° |
| 2026-04-26 23:35 | -17.14408 | -64.00286 | 22023 ft | 399 kts | 121° |
| 2026-04-26 23:36 | -17.15815 | -63.97802 | 21544 ft | 396 kts | 121° |
| 2026-04-26 23:36 | -17.17214 | -63.95337 | 21071 ft | 393 kts | 121° |
| 2026-04-26 23:36 | -17.18604 | -63.92886 | 20570 ft | 391 kts | 121° |
| 2026-04-26 23:36 | -17.19990 | -63.90438 | 20081 ft | 390 kts | 121° |
| 2026-04-26 23:37 | -17.21369 | -63.88002 | 19578 ft | 389 kts | 121° |
| 2026-04-26 23:37 | -17.22743 | -63.85570 | 19073 ft | 388 kts | 121° |
| 2026-04-26 23:37 | -17.24117 | -63.83139 | 18571 ft | 388 kts | 121° |
| 2026-04-26 23:37 | -17.25491 | -63.80708 | 18034 ft | 388 kts | 121° |
| 2026-04-26 23:38 | -17.26863 | -63.78279 | 17514 ft | 387 kts | 121° |
| 2026-04-26 23:38 | -17.28213 | -63.75888 | 17016 ft | 385 kts | 121° |
| 2026-04-26 23:38 | -17.29568 | -63.73485 | 16518 ft | 383 kts | 121° |
| 2026-04-26 23:38 | -17.30921 | -63.71086 | 16035 ft | 382 kts | 121° |
| 2026-04-26 23:39 | -17.32272 | -63.68695 | 15539 ft | 381 kts | 121° |
| 2026-04-26 23:39 | -17.33627 | -63.66306 | 15051 ft | 380 kts | 121° |
| 2026-04-26 23:39 | -17.34977 | -63.63929 | 14562 ft | 379 kts | 121° |
| 2026-04-26 23:39 | -17.36321 | -63.61556 | 14071 ft | 378 kts | 121° |
| 2026-04-26 23:40 | -17.37648 | -63.59205 | 13560 ft | 371 kts | 121° |
| 2026-04-26 23:40 | -17.38943 | -63.56904 | 13056 ft | 363 kts | 121° |
| 2026-04-26 23:40 | -17.40202 | -63.54663 | 12559 ft | 350 kts | 120° |
| 2026-04-26 23:40 | -17.41420 | -63.52503 | 12180 ft | 337 kts | 120° |
| 2026-04-26 23:41 | -17.42578 | -63.50455 | 12038 ft | 317 kts | 120° |
| 2026-04-26 23:41 | -17.43678 | -63.48504 | 11877 ft | 310 kts | 120° |
| 2026-04-26 23:41 | -17.44773 | -63.46561 | 11537 ft | 310 kts | 120° |
| 2026-04-26 23:41 | -17.45867 | -63.44615 | 11185 ft | 310 kts | 120° |
| 2026-04-26 23:42 | -17.46961 | -63.42668 | 10828 ft | 310 kts | 120° |
| 2026-04-26 23:42 | -17.49163 | -63.38748 | 9871 ft | 314 kts | 119° |
| 2026-04-26 23:42 | -17.50252 | -63.36809 | 9257 ft | 312 kts | 119° |
| 2026-04-26 23:43 | -17.51349 | -63.34858 | 8720 ft | 308 kts | 119° |
| 2026-04-26 23:43 | -17.52418 | -63.32956 | 8538 ft | 302 kts | 119° |
| 2026-04-26 23:43 | -17.53484 | -63.31059 | 8173 ft | 301 kts | 119° |
| 2026-04-26 23:43 | -17.54543 | -63.29174 | 7816 ft | 299 kts | 119° |
| 2026-04-26 23:44 | -17.55595 | -63.27296 | 7450 ft | 298 kts | 119° |
| 2026-04-26 23:44 | -17.56646 | -63.25425 | 7096 ft | 296 kts | 119° |
| 2026-04-26 23:44 | -17.57688 | -63.23568 | 6750 ft | 295 kts | 119° |
| 2026-04-26 23:44 | -17.58723 | -63.21723 | 6396 ft | 293 kts | 119° |
| 2026-04-26 23:45 | -17.59748 | -63.19892 | 6030 ft | 291 kts | 119° |
| 2026-04-26 23:45 | -17.60425 | -63.18682 | 5774 ft | 290 kts | 119° |
| 2026-04-26 23:45 | -17.61785 | -63.16256 | 5305 ft | 287 kts | 119° |
| 2026-04-26 23:45 | -17.62830 | -63.14474 | 4925 ft | 286 kts | 126° |
| 2026-04-26 23:46 | -17.64024 | -63.12833 | 4713 ft | 279 kts | 127° |
| 2026-04-26 23:46 | -17.65201 | -63.11216 | 4627 ft | 279 kts | 126° |
| 2026-04-26 23:46 | -17.66375 | -63.09598 | 4481 ft | 278 kts | 126° |
| 2026-04-26 23:46 | -17.67546 | -63.07984 | 4319 ft | 277 kts | 126° |
| 2026-04-26 23:47 | -17.68708 | -63.06380 | 4154 ft | 276 kts | 126° |
| 2026-04-26 23:47 | -17.69868 | -63.04780 | 3998 ft | 275 kts | 127° |
| 2026-04-26 23:47 | -17.70999 | -63.03219 | 3868 ft | 266 kts | 126° |
| 2026-04-26 23:47 | -17.72110 | -63.01685 | 3754 ft | 255 kts | 126° |
| 2026-04-26 23:48 | -17.73158 | -63.00238 | 3663 ft | 244 kts | 126° |
| 2026-04-26 23:48 | -17.74224 | -62.98916 | 3603 ft | 232 kts | 141° |
| 2026-04-26 23:48 | -17.75602 | -62.98200 | 3553 ft | 221 kts | 171° |
| 2026-04-26 23:48 | -17.77084 | -62.98219 | 3537 ft | 206 kts | 198° |
| 2026-04-26 23:49 | -17.78304 | -62.98835 | 3500 ft | 187 kts | 222° |
| 2026-04-26 23:49 | -17.79142 | -62.99854 | 3468 ft | 185 kts | 245° |
| 2026-04-26 23:49 | -17.79537 | -63.01118 | 3427 ft | 182 kts | 267° |
| 2026-04-26 23:49 | -17.79447 | -63.02421 | 3390 ft | 179 kts | 288° |
| 2026-04-26 23:50 | -17.78905 | -63.03578 | 3349 ft | 177 kts | 309° |
| 2026-04-26 23:50 | -17.77994 | -63.04435 | 3325 ft | 177 kts | 328° |
| 2026-04-26 23:50 | -17.76954 | -63.05133 | 3279 ft | 177 kts | 327° |
| 2026-04-26 23:50 | -17.75948 | -63.05810 | 3242 ft | 161 kts | 327° |
| 2026-04-26 23:51 | -17.75040 | -63.06422 | 3188 ft | 149 kts | 328° |
| 2026-04-26 23:51 | -17.74189 | -63.06996 | 3076 ft | 143 kts | 327° |
| 2026-04-26 23:51 | -17.73357 | -63.07556 | 2928 ft | 142 kts | 327° |
| 2026-04-26 23:51 | -17.72527 | -63.08115 | 2755 ft | 142 kts | 327° |
| 2026-04-26 23:52 | -17.71977 | -63.08485 | 2643 ft | 142 kts | 327° |
| 2026-04-26 23:52 | -17.70861 | -63.09237 | 2404 ft | 142 kts | 327° |
| 2026-04-26 23:52 | -17.70029 | -63.09797 | 2219 ft | 142 kts | 327° |
| 2026-04-26 23:52 | -17.69480 | -63.10167 | 2096 ft | 142 kts | 327° |
| 2026-04-26 23:53 | -17.68634 | -63.10736 | 1912 ft | 147 kts | 326° |
| 2026-04-26 23:53 | -17.67762 | -63.11323 | 1721 ft | 151 kts | 326° |
| 2026-04-26 23:53 | -17.66877 | -63.11919 | 1524 ft | 152 kts | 326° |
| 2026-04-26 23:53 | -17.65988 | -63.12520 | 1332 ft | 152 kts | 326° |
| 2026-04-26 23:54 | -17.65112 | -63.13116 | 1273 ft | 147 kts | 326° |
| 2026-04-26 23:54 | -17.64330 | -63.13646 | 1231 ft | 110 kts | 328° |
| 2026-04-26 23:54 | -17.63956 | -63.13893 | 1228 ft | 23 kts | 336° |
| 2026-04-26 23:54 | -17.63936 | -63.13905 | 1228 ft | 0 kts | 326° |
| 2026-04-26 23:55 | -17.63900 | -63.13947 | 1228 ft | 14 kts | 288° |
| 2026-04-26 23:55 | -17.63924 | -63.14021 | 1230 ft | 9 kts | 239° |
| 2026-04-26 23:55 | -17.63933 | -63.14036 | 1230 ft | 0 kts | 239° |
| 2026-04-26 23:57 | -17.63935 | -63.14039 | 1230 ft | 3 kts | 239° |
| 2026-04-26 23:57 | -17.63968 | -63.14078 | 1231 ft | 8 kts | 207° |
| 2026-04-26 23:57 | -17.64059 | -63.14051 | 1231 ft | 25 kts | 151° |
| 2026-04-26 23:57 | -17.64166 | -63.13981 | 1231 ft | 18 kts | 147° |
| 2026-04-26 23:58 | -17.64279 | -63.13907 | 1231 ft | 20 kts | 148° |
| 2026-04-26 23:58 | -17.64359 | -63.13854 | 1231 ft | 10 kts | 148° |
| 2026-04-26 23:58 | -17.64413 | -63.13887 | 1231 ft | 10 kts | 232° |
| 2026-04-26 23:58 | -17.64452 | -63.13945 | 1231 ft | 9 kts | 235° |
| 2026-04-26 23:59 | -17.64485 | -63.14000 | 1231 ft | 8 kts | 238° |
| 2026-04-26 23:59 | -17.64526 | -63.14027 | 1231 ft | 7 kts | 184° |
| 2026-04-26 23:59 | -17.64566 | -63.14005 | 1231 ft | 6 kts | 146° |
| 2026-04-26 23:59 | -17.64602 | -63.13980 | 1231 ft | 6 kts | 146° |
| 2026-04-27 00:00 | -17.64635 | -63.13966 | 1231 ft | 4 kts | 186° |
| 2026-04-27 00:00 | -17.64652 | -63.13981 | 1231 ft | 3 kts | 229° |
| 2026-04-27 00:00 | -17.64660 | -63.13992 | 1231 ft | 1 kts | 236° |
| 2026-04-27 00:00 | -17.64664 | -63.13997 | 1231 ft | 0 kts | 230° |
| 2026-04-27 00:01 | -17.64681 | -63.14022 | 1231 ft | 5 kts | 235° |
| 2026-04-27 00:01 | -17.64685 | -63.14028 | 1231 ft | 0 kts | 235° |